메인 페이지
METAR-TAF:

METAR-TAF

공항 :

Bobby L. Chain Municipal Airport

Hattiesburg, 미시시피, 미국

위도: 31-15-54N, 경도: 089-15-11W, 고도: 46m

현재 날씨관측

예보는 1 시간 5분 전, 22:53시(UTC)에 발표되었습니다.
남남서3kt
온도 31°C
습도 59%
기압 1011 hPa
시정: 16.1km
맑음

METAR: KHBG 182253Z AUTO 21003KT 10SM CLR 31/22 A2986 RMK AO2 SLP108 T03110217

시각: 18:58 (23:58 UTC)

예보

예보는 13분 전, 23:45시(UTC)에 발표되었습니다.
예보 대상 시간: 19일 00시부터 19일 24시까지 (UTC)
3kt
시정: 10km
고도 4000ft 상공 구름 많음
고도 6000ft 상공 구름 많음
시계 내 소나기
19일 0200시부터 (UTC)
3kt
시정: 10km
고도 12000ft 상공 구름 보통
19일 0900시부터 (UTC)
3kt
시정: 8.0km
고도 700ft 상공 흐림
박무
19일 1500시부터 (UTC)
남서9kt
시정: 10km
고도 3500ft 상공 구름 보통
고도 5000ft 상공 구름 보통

TAF: KHBG 182345Z 1900/1924 18003KT P6SM VCSH BKN040 BKN060 FM190200 19003KT P6SM SCT120 FM190900 18003KT 5SM BR OVC007 FM191500 22009KT P6SM SCT035 SCT050

4,000개 이상의 공항 관측 자료 및 예보 (METAR 및 TAF 보고).

지도상에서 검색 가능한 기상관측소가 노란 점과 빨간 점으로 표시되어 있습니다.

기상관측소 명을 보려면 표시 위로 마우스를 이동하세요.

날씨 관측과 예보를 보려면 클릭하세요.

지도 변경 : 확대하려면 엑스 표시가 있는 녹색 버튼, 축소하려면 빼기 표시가 있는 녹색 버튼, 다음 페이지의 지도를 보려면 녹색 화살표를 클릭하세요.


METAR-TAF: